sensor_id;sensor_type;location;lat;lon;timestamp;P1;durP1;ratioP1;P2;durP2;ratioP2
43552;SDS011;29153;42.696;23.218;2023-02-01T00:00:42;8.15;;;4.17;;
43552;SDS011;29153;42.696;23.218;2023-02-01T00:03:09;27.22;;;12.00;;
43552;SDS011;29153;42.696;23.218;2023-02-01T00:05:38;103.65;;;39.63;;
43552;SDS011;29153;42.696;23.218;2023-02-01T00:08:05;148.75;;;52.78;;
43552;SDS011;29153;42.696;23.218;2023-02-01T00:10:33;116.95;;;43.28;;
43552;SDS011;29153;42.696;23.218;2023-02-01T00:13:00;62.03;;;23.25;;
43552;SDS011;29153;42.696;23.218;2023-02-01T00:15:28;48.55;;;18.73;;
43552;SDS011;29153;42.696;23.218;2023-02-01T00:17:55;189.52;;;61.77;;
43552;SDS011;29153;42.696;23.218;2023-02-01T00:20:23;199.77;;;62.08;;
43552;SDS011;29153;42.696;23.218;2023-02-01T00:22:51;279.57;;;82.42;;
43552;SDS011;29153;42.696;23.218;2023-02-01T00:25:18;240.82;;;74.12;;
43552;SDS011;29153;42.696;23.218;2023-02-01T00:27:49;96.72;;;31.17;;
43552;SDS011;29153;42.696;23.218;2023-02-01T00:30:17;181.65;;;58.20;;
43552;SDS011;29153;42.696;23.218;2023-02-01T00:32:44;92.30;;;32.03;;
43552;SDS011;29153;42.696;23.218;2023-02-01T00:35:12;94.55;;;30.88;;
43552;SDS011;29153;42.696;23.218;2023-02-01T00:37:39;74.20;;;27.87;;
43552;SDS011;29153;42.696;23.218;2023-02-01T00:40:07;148.50;;;56.13;;
43552;SDS011;29153;42.696;23.218;2023-02-01T00:42:36;115.08;;;43.33;;
43552;SDS011;29153;42.696;23.218;2023-02-01T00:45:03;130.57;;;50.75;;
43552;SDS011;29153;42.696;23.218;2023-02-01T00:47:31;94.45;;;36.10;;
43552;SDS011;29153;42.696;23.218;2023-02-01T00:49:59;29.42;;;12.68;;
43552;SDS011;29153;42.696;23.218;2023-02-01T00:52:26;17.77;;;9.15;;
43552;SDS011;29153;42.696;23.218;2023-02-01T00:54:54;21.57;;;10.72;;
43552;SDS011;29153;42.696;23.218;2023-02-01T00:57:21;25.95;;;11.38;;
43552;SDS011;29153;42.696;23.218;2023-02-01T00:59:49;46.40;;;20.15;;
43552;SDS011;29153;42.696;23.218;2023-02-01T01:02:16;25.65;;;11.83;;
43552;SDS011;29153;42.696;23.218;2023-02-01T01:04:44;31.02;;;15.20;;
43552;SDS011;29153;42.696;23.218;2023-02-01T01:07:11;14.43;;;6.30;;
43552;SDS011;29153;42.696;23.218;2023-02-01T01:09:39;46.18;;;22.67;;
43552;SDS011;29153;42.696;23.218;2023-02-01T01:12:06;28.98;;;13.98;;
43552;SDS011;29153;42.696;23.218;2023-02-01T01:14:34;23.27;;;10.00;;
43552;SDS011;29153;42.696;23.218;2023-02-01T01:17:01;22.93;;;9.40;;
43552;SDS011;29153;42.696;23.218;2023-02-01T01:19:29;11.93;;;5.92;;
43552;SDS011;29153;42.696;23.218;2023-02-01T01:21:57;10.20;;;5.45;;
43552;SDS011;29153;42.696;23.218;2023-02-01T01:24:24;4.45;;;3.10;;
43552;SDS011;29153;42.696;23.218;2023-02-01T01:26:52;10.45;;;5.62;;
43552;SDS011;29153;42.696;23.218;2023-02-01T01:29:19;8.33;;;4.42;;
43552;SDS011;29153;42.696;23.218;2023-02-01T01:31:47;5.50;;;2.75;;
43552;SDS011;29153;42.696;23.218;2023-02-01T01:34:14;7.55;;;3.98;;
43552;SDS011;29153;42.696;23.218;2023-02-01T01:36:42;10.82;;;3.95;;
43552;SDS011;29153;42.696;23.218;2023-02-01T01:39:09;15.83;;;11.05;;
43552;SDS011;29153;42.696;23.218;2023-02-01T01:41:37;9.18;;;4.50;;
43552;SDS011;29153;42.696;23.218;2023-02-01T01:44:05;9.45;;;4.20;;
43552;SDS011;29153;42.696;23.218;2023-02-01T01:46:35;6.97;;;3.50;;
43552;SDS011;29153;42.696;23.218;2023-02-01T01:49:16;5.65;;;2.65;;
43552;SDS011;29153;42.696;23.218;2023-02-01T01:51:49;10.38;;;5.45;;
43552;SDS011;29153;42.696;23.218;2023-02-01T01:54:19;8.90;;;3.15;;
43552;SDS011;29153;42.696;23.218;2023-02-01T01:56:51;4.70;;;2.72;;
43552;SDS011;29153;42.696;23.218;2023-02-01T01:59:20;6.80;;;3.37;;
43552;SDS011;29153;42.696;23.218;2023-02-01T02:01:49;8.18;;;4.72;;
43552;SDS011;29153;42.696;23.218;2023-02-01T02:04:18;7.05;;;3.27;;
43552;SDS011;29153;42.696;23.218;2023-02-01T02:07:09;4.60;;;2.83;;
43552;SDS011;29153;42.696;23.218;2023-02-01T02:09:22;4.97;;;2.22;;
43552;SDS011;29153;42.696;23.218;2023-02-01T02:11:50;5.25;;;2.52;;
43552;SDS011;29153;42.696;23.218;2023-02-01T02:14:18;3.90;;;2.00;;
43552;SDS011;29153;42.696;23.218;2023-02-01T02:16:51;5.40;;;2.92;;
43552;SDS011;29153;42.696;23.218;2023-02-01T02:25:26;5.53;;;2.15;;
43552;SDS011;29153;42.696;23.218;2023-02-01T02:36:22;6.30;;;2.80;;
43552;SDS011;29153;42.696;23.218;2023-02-01T02:39:29;6.05;;;3.08;;
43552;SDS011;29153;42.696;23.218;2023-02-01T02:45:08;7.45;;;2.37;;
43552;SDS011;29153;42.696;23.218;2023-02-01T02:50:32;6.70;;;2.83;;
43552;SDS011;29153;42.696;23.218;2023-02-01T02:53:18;7.50;;;3.72;;
43552;SDS011;29153;42.696;23.218;2023-02-01T02:56:06;6.75;;;3.00;;
43552;SDS011;29153;42.696;23.218;2023-02-01T02:58:54;7.08;;;2.37;;
43552;SDS011;29153;42.696;23.218;2023-02-01T03:01:41;4.20;;;1.62;;
43552;SDS011;29153;42.696;23.218;2023-02-01T03:04:27;3.50;;;1.60;;
43552;SDS011;29153;42.696;23.218;2023-02-01T03:06:55;3.45;;;1.30;;
43552;SDS011;29153;42.696;23.218;2023-02-01T03:09:26;4.75;;;1.35;;
43552;SDS011;29153;42.696;23.218;2023-02-01T03:11:56;3.83;;;1.35;;
43552;SDS011;29153;42.696;23.218;2023-02-01T03:14:43;4.47;;;2.15;;
43552;SDS011;29153;42.696;23.218;2023-02-01T03:17:14;3.75;;;1.67;;
43552;SDS011;29153;42.696;23.218;2023-02-01T03:19:45;2.15;;;0.90;;
43552;SDS011;29153;42.696;23.218;2023-02-01T03:22:17;4.95;;;1.32;;
43552;SDS011;29153;42.696;23.218;2023-02-01T03:24:56;4.15;;;1.50;;
43552;SDS011;29153;42.696;23.218;2023-02-01T03:27:49;2.75;;;1.40;;
43552;SDS011;29153;42.696;23.218;2023-02-01T03:30:21;3.30;;;1.55;;
43552;SDS011;29153;42.696;23.218;2023-02-01T03:32:52;4.90;;;2.12;;
43552;SDS011;29153;42.696;23.218;2023-02-01T03:35:32;4.22;;;1.77;;
43552;SDS011;29153;42.696;23.218;2023-02-01T03:38:12;5.60;;;1.82;;
43552;SDS011;29153;42.696;23.218;2023-02-01T03:40:48;4.35;;;1.62;;
43552;SDS011;29153;42.696;23.218;2023-02-01T03:43:17;3.08;;;1.90;;
43552;SDS011;29153;42.696;23.218;2023-02-01T03:45:49;4.17;;;2.37;;
43552;SDS011;29153;42.696;23.218;2023-02-01T03:48:18;4.67;;;1.65;;
43552;SDS011;29153;42.696;23.218;2023-02-01T03:50:49;3.62;;;1.70;;
43552;SDS011;29153;42.696;23.218;2023-02-01T03:53:19;5.90;;;1.80;;
43552;SDS011;29153;42.696;23.218;2023-02-01T03:55:49;5.35;;;1.40;;
43552;SDS011;29153;42.696;23.218;2023-02-01T03:58:19;2.90;;;1.70;;
43552;SDS011;29153;42.696;23.218;2023-02-01T04:00:53;3.47;;;1.57;;
43552;SDS011;29153;42.696;23.218;2023-02-01T04:03:22;3.45;;;1.50;;
43552;SDS011;29153;42.696;23.218;2023-02-01T04:05:51;3.45;;;1.87;;
43552;SDS011;29153;42.696;23.218;2023-02-01T04:08:19;3.00;;;1.47;;
43552;SDS011;29153;42.696;23.218;2023-02-01T04:10:49;6.83;;;1.25;;
43552;SDS011;29153;42.696;23.218;2023-02-01T04:13:17;4.10;;;1.70;;
43552;SDS011;29153;42.696;23.218;2023-02-01T04:15:44;6.90;;;1.50;;
43552;SDS011;29153;42.696;23.218;2023-02-01T04:18:15;5.50;;;2.30;;
43552;SDS011;29153;42.696;23.218;2023-02-01T04:20:42;4.47;;;2.10;;
43552;SDS011;29153;42.696;23.218;2023-02-01T04:23:10;5.30;;;2.02;;
43552;SDS011;29153;42.696;23.218;2023-02-01T04:25:38;4.28;;;2.10;;
43552;SDS011;29153;42.696;23.218;2023-02-01T04:28:05;3.42;;;1.25;;
43552;SDS011;29153;42.696;23.218;2023-02-01T04:30:33;4.00;;;1.98;;
43552;SDS011;29153;42.696;23.218;2023-02-01T04:33:00;4.62;;;2.20;;
43552;SDS011;29153;42.696;23.218;2023-02-01T04:35:29;4.47;;;1.82;;
43552;SDS011;29153;42.696;23.218;2023-02-01T04:37:58;7.50;;;4.37;;
43552;SDS011;29153;42.696;23.218;2023-02-01T04:40:26;11.65;;;4.00;;
43552;SDS011;29153;42.696;23.218;2023-02-01T04:42:53;6.70;;;2.50;;
43552;SDS011;29153;42.696;23.218;2023-02-01T04:45:21;6.05;;;2.72;;
43552;SDS011;29153;42.696;23.218;2023-02-01T04:47:48;6.80;;;3.45;;
43552;SDS011;29153;42.696;23.218;2023-02-01T04:50:16;5.85;;;2.92;;
43552;SDS011;29153;42.696;23.218;2023-02-01T04:52:44;5.10;;;3.30;;
43552;SDS011;29153;42.696;23.218;2023-02-01T04:55:11;9.60;;;5.25;;
43552;SDS011;29153;42.696;23.218;2023-02-01T04:57:42;3.40;;;2.20;;
43552;SDS011;29153;42.696;23.218;2023-02-01T05:00:10;5.85;;;2.62;;
43552;SDS011;29153;42.696;23.218;2023-02-01T05:02:38;5.58;;;2.80;;
43552;SDS011;29153;42.696;23.218;2023-02-01T05:05:06;6.08;;;2.80;;
43552;SDS011;29153;42.696;23.218;2023-02-01T05:07:34;6.05;;;2.67;;
43552;SDS011;29153;42.696;23.218;2023-02-01T05:10:01;8.15;;;2.90;;
43552;SDS011;29153;42.696;23.218;2023-02-01T05:12:29;4.10;;;2.98;;
43552;SDS011;29153;42.696;23.218;2023-02-01T05:15:14;5.95;;;2.95;;
43552;SDS011;29153;42.696;23.218;2023-02-01T05:17:42;7.35;;;3.40;;
43552;SDS011;29153;42.696;23.218;2023-02-01T05:20:09;4.45;;;2.37;;
43552;SDS011;29153;42.696;23.218;2023-02-01T05:22:37;4.55;;;2.60;;
43552;SDS011;29153;42.696;23.218;2023-02-01T05:25:05;6.80;;;1.80;;
43552;SDS011;29153;42.696;23.218;2023-02-01T05:27:32;4.05;;;2.40;;
43552;SDS011;29153;42.696;23.218;2023-02-01T05:30:00;5.53;;;2.10;;
43552;SDS011;29153;42.696;23.218;2023-02-01T05:32:29;7.53;;;2.50;;
43552;SDS011;29153;42.696;23.218;2023-02-01T05:34:57;4.33;;;2.37;;
43552;SDS011;29153;42.696;23.218;2023-02-01T05:37:25;5.95;;;2.10;;
43552;SDS011;29153;42.696;23.218;2023-02-01T05:39:52;5.08;;;1.90;;
43552;SDS011;29153;42.696;23.218;2023-02-01T05:42:20;5.00;;;2.60;;
43552;SDS011;29153;42.696;23.218;2023-02-01T05:44:47;7.75;;;2.35;;
43552;SDS011;29153;42.696;23.218;2023-02-01T05:47:15;5.78;;;2.45;;
43552;SDS011;29153;42.696;23.218;2023-02-01T05:49:42;5.25;;;3.08;;
43552;SDS011;29153;42.696;23.218;2023-02-01T05:52:10;6.25;;;3.12;;
43552;SDS011;29153;42.696;23.218;2023-02-01T05:54:37;4.20;;;2.62;;
43552;SDS011;29153;42.696;23.218;2023-02-01T05:57:05;4.12;;;2.45;;
43552;SDS011;29153;42.696;23.218;2023-02-01T05:59:32;6.65;;;2.55;;
43552;SDS011;29153;42.696;23.218;2023-02-01T06:02:01;3.60;;;2.10;;
43552;SDS011;29153;42.696;23.218;2023-02-01T06:04:28;5.03;;;2.60;;
43552;SDS011;29153;42.696;23.218;2023-02-01T06:06:56;7.53;;;2.35;;
43552;SDS011;29153;42.696;23.218;2023-02-01T06:09:24;6.05;;;2.55;;
43552;SDS011;29153;42.696;23.218;2023-02-01T06:11:51;7.03;;;2.20;;
43552;SDS011;29153;42.696;23.218;2023-02-01T06:14:19;8.98;;;2.10;;
43552;SDS011;29153;42.696;23.218;2023-02-01T06:16:46;4.85;;;1.80;;
43552;SDS011;29153;42.696;23.218;2023-02-01T06:19:14;5.70;;;2.67;;
43552;SDS011;29153;42.696;23.218;2023-02-01T06:21:41;4.08;;;1.72;;
43552;SDS011;29153;42.696;23.218;2023-02-01T06:24:10;4.20;;;2.00;;
43552;SDS011;29153;42.696;23.218;2023-02-01T06:26:38;6.85;;;2.15;;
43552;SDS011;29153;42.696;23.218;2023-02-01T06:29:11;4.60;;;1.87;;
43552;SDS011;29153;42.696;23.218;2023-02-01T06:31:39;7.15;;;2.67;;
43552;SDS011;29153;42.696;23.218;2023-02-01T06:34:08;42.20;;;17.55;;
43552;SDS011;29153;42.696;23.218;2023-02-01T06:36:35;24.57;;;13.45;;
43552;SDS011;29153;42.696;23.218;2023-02-01T06:39:03;10.72;;;7.60;;
43552;SDS011;29153;42.696;23.218;2023-02-01T06:41:31;44.40;;;22.37;;
43552;SDS011;29153;42.696;23.218;2023-02-01T06:44:00;18.80;;;6.92;;
43552;SDS011;29153;42.696;23.218;2023-02-01T06:46:29;61.25;;;24.00;;
43552;SDS011;29153;42.696;23.218;2023-02-01T06:48:56;176.68;;;66.87;;
43552;SDS011;29153;42.696;23.218;2023-02-01T06:51:25;103.10;;;42.27;;
43552;SDS011;29153;42.696;23.218;2023-02-01T06:53:54;50.40;;;21.52;;
43552;SDS011;29153;42.696;23.218;2023-02-01T06:56:23;152.82;;;57.55;;
43552;SDS011;29153;42.696;23.218;2023-02-01T06:58:50;50.65;;;19.25;;
43552;SDS011;29153;42.696;23.218;2023-02-01T07:01:18;45.52;;;21.15;;
43552;SDS011;29153;42.696;23.218;2023-02-01T07:03:49;23.95;;;11.57;;
43552;SDS011;29153;42.696;23.218;2023-02-01T07:06:17;23.62;;;10.85;;
43552;SDS011;29153;42.696;23.218;2023-02-01T07:08:45;37.40;;;17.77;;
43552;SDS011;29153;42.696;23.218;2023-02-01T07:11:13;56.37;;;17.60;;
43552;SDS011;29153;42.696;23.218;2023-02-01T07:13:42;37.48;;;18.92;;
43552;SDS011;29153;42.696;23.218;2023-02-01T07:16:11;24.98;;;11.57;;
43552;SDS011;29153;42.696;23.218;2023-02-01T07:18:40;80.42;;;34.05;;
43552;SDS011;29153;42.696;23.218;2023-02-01T07:21:07;41.28;;;21.60;;
43552;SDS011;29153;42.696;23.218;2023-02-01T07:23:35;21.52;;;9.85;;
43552;SDS011;29153;42.696;23.218;2023-02-01T07:26:04;21.17;;;9.45;;
43552;SDS011;29153;42.696;23.218;2023-02-01T07:28:35;15.48;;;8.15;;
43552;SDS011;29153;42.696;23.218;2023-02-01T07:31:08;11.18;;;4.95;;
43552;SDS011;29153;42.696;23.218;2023-02-01T07:33:33;9.15;;;5.67;;
43552;SDS011;29153;42.696;23.218;2023-02-01T07:36:02;8.65;;;4.80;;
43552;SDS011;29153;42.696;23.218;2023-02-01T07:38:31;17.15;;;9.35;;
43552;SDS011;29153;42.696;23.218;2023-02-01T07:40:59;15.10;;;8.18;;
43552;SDS011;29153;42.696;23.218;2023-02-01T07:43:30;6.53;;;3.15;;
43552;SDS011;29153;42.696;23.218;2023-02-01T07:45:58;10.18;;;6.60;;
43552;SDS011;29153;42.696;23.218;2023-02-01T07:48:27;7.08;;;3.87;;
43552;SDS011;29153;42.696;23.218;2023-02-01T07:50:58;5.53;;;2.70;;
43552;SDS011;29153;42.696;23.218;2023-02-01T07:53:30;6.10;;;4.20;;
43552;SDS011;29153;42.696;23.218;2023-02-01T07:55:59;6.42;;;3.50;;
43552;SDS011;29153;42.696;23.218;2023-02-01T07:58:27;5.12;;;2.75;;
43552;SDS011;29153;42.696;23.218;2023-02-01T08:00:55;5.53;;;3.00;;
43552;SDS011;29153;42.696;23.218;2023-02-01T08:03:42;5.92;;;2.65;;
43552;SDS011;29153;42.696;23.218;2023-02-01T08:06:19;3.42;;;2.10;;
43552;SDS011;29153;42.696;23.218;2023-02-01T08:08:47;4.50;;;2.92;;
43552;SDS011;29153;42.696;23.218;2023-02-01T08:11:16;5.97;;;3.20;;
43552;SDS011;29153;42.696;23.218;2023-02-01T08:13:44;6.35;;;2.87;;
43552;SDS011;29153;42.696;23.218;2023-02-01T08:16:13;7.12;;;2.92;;
43552;SDS011;29153;42.696;23.218;2023-02-01T08:18:41;5.75;;;2.58;;
43552;SDS011;29153;42.696;23.218;2023-02-01T08:21:17;4.97;;;1.50;;
43552;SDS011;29153;42.696;23.218;2023-02-01T08:23:47;2.98;;;1.40;;
43552;SDS011;29153;42.696;23.218;2023-02-01T08:26:16;6.12;;;3.30;;
43552;SDS011;29153;42.696;23.218;2023-02-01T08:28:50;7.53;;;3.95;;
43552;SDS011;29153;42.696;23.218;2023-02-01T08:31:32;4.30;;;2.05;;
43552;SDS011;29153;42.696;23.218;2023-02-01T08:34:01;5.37;;;1.62;;
43552;SDS011;29153;42.696;23.218;2023-02-01T08:38:57;4.30;;;1.50;;
43552;SDS011;29153;42.696;23.218;2023-02-01T08:41:27;3.98;;;2.05;;
43552;SDS011;29153;42.696;23.218;2023-02-01T08:43:56;3.22;;;1.30;;
43552;SDS011;29153;42.696;23.218;2023-02-01T08:46:24;4.05;;;1.22;;
43552;SDS011;29153;42.696;23.218;2023-02-01T08:48:52;4.67;;;1.60;;
43552;SDS011;29153;42.696;23.218;2023-02-01T08:51:20;3.05;;;1.32;;
43552;SDS011;29153;42.696;23.218;2023-02-01T08:53:48;4.30;;;1.72;;
43552;SDS011;29153;42.696;23.218;2023-02-01T08:56:17;2.85;;;0.88;;
43552;SDS011;29153;42.696;23.218;2023-02-01T09:01:13;3.27;;;1.10;;
43552;SDS011;29153;42.696;23.218;2023-02-01T09:03:42;4.80;;;1.67;;
43552;SDS011;29153;42.696;23.218;2023-02-01T09:06:10;3.50;;;1.50;;
43552;SDS011;29153;42.696;23.218;2023-02-01T09:08:40;4.72;;;1.92;;
43552;SDS011;29153;42.696;23.218;2023-02-01T09:11:10;4.05;;;1.80;;
43552;SDS011;29153;42.696;23.218;2023-02-01T09:13:38;5.33;;;3.40;;
43552;SDS011;29153;42.696;23.218;2023-02-01T09:16:07;4.42;;;2.37;;
43552;SDS011;29153;42.696;23.218;2023-02-01T09:18:34;4.08;;;2.58;;
43552;SDS011;29153;42.696;23.218;2023-02-01T09:21:07;11.68;;;5.60;;
43552;SDS011;29153;42.696;23.218;2023-02-01T09:23:35;4.10;;;1.98;;
43552;SDS011;29153;42.696;23.218;2023-02-01T09:26:03;12.70;;;2.42;;
43552;SDS011;29153;42.696;23.218;2023-02-01T09:28:32;4.78;;;2.27;;
43552;SDS011;29153;42.696;23.218;2023-02-01T09:31:00;7.47;;;3.70;;
43552;SDS011;29153;42.696;23.218;2023-02-01T09:33:28;6.20;;;3.47;;
43552;SDS011;29153;42.696;23.218;2023-02-01T09:35:57;4.17;;;1.42;;
43552;SDS011;29153;42.696;23.218;2023-02-01T09:38:26;12.00;;;5.05;;
43552;SDS011;29153;42.696;23.218;2023-02-01T09:40:54;10.68;;;3.90;;
43552;SDS011;29153;42.696;23.218;2023-02-01T09:43:25;14.00;;;5.10;;
43552;SDS011;29153;42.696;23.218;2023-02-01T09:46:18;12.78;;;3.95;;
43552;SDS011;29153;42.696;23.218;2023-02-01T09:48:47;17.80;;;6.12;;
43552;SDS011;29153;42.696;23.218;2023-02-01T09:51:25;14.43;;;4.30;;
43552;SDS011;29153;42.696;23.218;2023-02-01T09:54:05;40.15;;;16.32;;
43552;SDS011;29153;42.696;23.218;2023-02-01T09:56:34;27.17;;;11.10;;
43552;SDS011;29153;42.696;23.218;2023-02-01T09:59:23;8.00;;;3.75;;
43552;SDS011;29153;42.696;23.218;2023-02-01T10:02:13;6.05;;;1.77;;
43552;SDS011;29153;42.696;23.218;2023-02-01T10:04:42;5.92;;;2.83;;
43552;SDS011;29153;42.696;23.218;2023-02-01T10:12:33;5.60;;;2.10;;
43552;SDS011;29153;42.696;23.218;2023-02-01T10:26:23;4.33;;;1.90;;
43552;SDS011;29153;42.696;23.218;2023-02-01T10:28:56;4.20;;;1.65;;
43552;SDS011;29153;42.696;23.218;2023-02-01T10:31:25;7.72;;;2.30;;
43552;SDS011;29153;42.696;23.218;2023-02-01T10:33:58;3.72;;;1.47;;
43552;SDS011;29153;42.696;23.218;2023-02-01T10:36:29;3.47;;;1.30;;
43552;SDS011;29153;42.696;23.218;2023-02-01T10:38:58;4.47;;;1.25;;
43552;SDS011;29153;42.696;23.218;2023-02-01T10:41:33;5.08;;;1.65;;
43552;SDS011;29153;42.696;23.218;2023-02-01T10:44:13;6.45;;;1.70;;
43552;SDS011;29153;42.696;23.218;2023-02-01T10:46:38;4.60;;;1.77;;
43552;SDS011;29153;42.696;23.218;2023-02-01T10:49:09;5.97;;;2.75;;
43552;SDS011;29153;42.696;23.218;2023-02-01T10:51:39;2.85;;;1.30;;
43552;SDS011;29153;42.696;23.218;2023-02-01T10:54:19;3.27;;;0.93;;
43552;SDS011;29153;42.696;23.218;2023-02-01T10:56:49;5.87;;;1.47;;
43552;SDS011;29153;42.696;23.218;2023-02-01T10:59:19;3.37;;;0.90;;
43552;SDS011;29153;42.696;23.218;2023-02-01T11:01:48;8.28;;;2.80;;
43552;SDS011;29153;42.696;23.218;2023-02-01T11:04:18;18.32;;;6.50;;
43552;SDS011;29153;42.696;23.218;2023-02-01T11:06:53;37.45;;;11.43;;
43552;SDS011;29153;42.696;23.218;2023-02-01T11:09:38;30.92;;;11.88;;
43552;SDS011;29153;42.696;23.218;2023-02-01T11:15:02;22.17;;;11.10;;
43552;SDS011;29153;42.696;23.218;2023-02-01T11:17:47;7.45;;;4.30;;
43552;SDS011;29153;42.696;23.218;2023-02-01T11:20:19;5.25;;;2.10;;
43552;SDS011;29153;42.696;23.218;2023-02-01T11:22:53;3.30;;;1.77;;
43552;SDS011;29153;42.696;23.218;2023-02-01T11:25:22;6.65;;;4.80;;
43552;SDS011;29153;42.696;23.218;2023-02-01T11:27:51;4.25;;;1.95;;
43552;SDS011;29153;42.696;23.218;2023-02-01T11:30:40;6.33;;;1.85;;
43552;SDS011;29153;42.696;23.218;2023-02-01T11:33:04;5.08;;;2.40;;
43552;SDS011;29153;42.696;23.218;2023-02-01T11:35:34;7.25;;;2.98;;
43552;SDS011;29153;42.696;23.218;2023-02-01T11:40:53;2.27;;;1.00;;
43552;SDS011;29153;42.696;23.218;2023-02-01T11:43:25;3.15;;;0.82;;
43552;SDS011;29153;42.696;23.218;2023-02-01T11:45:58;2.52;;;0.85;;
43552;SDS011;29153;42.696;23.218;2023-02-01T11:48:29;3.45;;;1.95;;
43552;SDS011;29153;42.696;23.218;2023-02-01T11:54:08;4.60;;;2.22;;
43552;SDS011;29153;42.696;23.218;2023-02-01T12:05:08;22.87;;;5.62;;
43552;SDS011;29153;42.696;23.218;2023-02-01T12:07:33;30.15;;;7.20;;
43552;SDS011;29153;42.696;23.218;2023-02-01T12:10:05;6.55;;;2.62;;
43552;SDS011;29153;42.696;23.218;2023-02-01T12:13:35;2.98;;;1.12;;
43552;SDS011;29153;42.696;23.218;2023-02-01T12:31:59;1.98;;;0.60;;
43552;SDS011;29153;42.696;23.218;2023-02-01T12:42:42;7.03;;;3.30;;
43552;SDS011;29153;42.696;23.218;2023-02-01T12:47:52;3.08;;;0.70;;
43552;SDS011;29153;42.696;23.218;2023-02-01T12:50:24;4.45;;;1.47;;
43552;SDS011;29153;42.696;23.218;2023-02-01T12:52:53;2.45;;;0.65;;
43552;SDS011;29153;42.696;23.218;2023-02-01T12:55:23;3.42;;;1.85;;
43552;SDS011;29153;42.696;23.218;2023-02-01T12:58:02;4.25;;;0.80;;
43552;SDS011;29153;42.696;23.218;2023-02-01T13:00:32;4.10;;;0.93;;
43552;SDS011;29153;42.696;23.218;2023-02-01T13:03:03;3.75;;;1.52;;
43552;SDS011;29153;42.696;23.218;2023-02-01T13:05:34;5.90;;;2.00;;
43552;SDS011;29153;42.696;23.218;2023-02-01T13:08:11;9.98;;;2.30;;
43552;SDS011;29153;42.696;23.218;2023-02-01T13:10:41;4.22;;;1.55;;
43552;SDS011;29153;42.696;23.218;2023-02-01T13:16:06;11.80;;;3.87;;
43552;SDS011;29153;42.696;23.218;2023-02-01T13:18:59;6.90;;;1.98;;
43552;SDS011;29153;42.696;23.218;2023-02-01T13:21:42;6.72;;;1.60;;
43552;SDS011;29153;42.696;23.218;2023-02-01T13:24:20;10.93;;;4.53;;
43552;SDS011;29153;42.696;23.218;2023-02-01T13:26:51;4.90;;;2.37;;
43552;SDS011;29153;42.696;23.218;2023-02-01T13:29:22;3.33;;;0.98;;
43552;SDS011;29153;42.696;23.218;2023-02-01T13:32:30;2.05;;;0.82;;
43552;SDS011;29153;42.696;23.218;2023-02-01T13:37:18;5.42;;;1.65;;
43552;SDS011;29153;42.696;23.218;2023-02-01T13:42:31;2.08;;;0.80;;
43552;SDS011;29153;42.696;23.218;2023-02-01T13:45:12;4.10;;;0.90;;
43552;SDS011;29153;42.696;23.218;2023-02-01T13:47:33;2.85;;;1.37;;
43552;SDS011;29153;42.696;23.218;2023-02-01T13:50:12;3.10;;;1.05;;
43552;SDS011;29153;42.696;23.218;2023-02-01T13:52:50;4.65;;;1.27;;
43552;SDS011;29153;42.696;23.218;2023-02-01T13:58:51;4.25;;;0.75;;
43552;SDS011;29153;42.696;23.218;2023-02-01T14:00:50;7.78;;;3.27;;
43552;SDS011;29153;42.696;23.218;2023-02-01T14:03:20;8.13;;;4.15;;
43552;SDS011;29153;42.696;23.218;2023-02-01T14:08:23;6.00;;;1.40;;
43552;SDS011;29153;42.696;23.218;2023-02-01T14:19:26;2.67;;;1.20;;
43552;SDS011;29153;42.696;23.218;2023-02-01T14:21:57;6.50;;;1.32;;
43552;SDS011;29153;42.696;23.218;2023-02-01T14:24:28;6.10;;;1.80;;
43552;SDS011;29153;42.696;23.218;2023-02-01T14:27:01;5.12;;;1.20;;
43552;SDS011;29153;42.696;23.218;2023-02-01T14:29:40;4.83;;;1.45;;
43552;SDS011;29153;42.696;23.218;2023-02-01T14:32:17;3.37;;;1.10;;
43552;SDS011;29153;42.696;23.218;2023-02-01T14:39:56;2.50;;;0.98;;
43552;SDS011;29153;42.696;23.218;2023-02-01T14:47:55;3.22;;;1.07;;
43552;SDS011;29153;42.696;23.218;2023-02-01T14:50:42;2.90;;;0.90;;
43552;SDS011;29153;42.696;23.218;2023-02-01T14:55:53;3.55;;;1.70;;
43552;SDS011;29153;42.696;23.218;2023-02-01T15:01:02;5.20;;;2.15;;
43552;SDS011;29153;42.696;23.218;2023-02-01T15:06:36;4.50;;;1.40;;
43552;SDS011;29153;42.696;23.218;2023-02-01T15:09:27;3.65;;;1.82;;
43552;SDS011;29153;42.696;23.218;2023-02-01T15:20:00;4.78;;;2.37;;
43552;SDS011;29153;42.696;23.218;2023-02-01T15:22:39;2.58;;;1.02;;
43552;SDS011;29153;42.696;23.218;2023-02-01T15:25:17;3.27;;;1.02;;
43552;SDS011;29153;42.696;23.218;2023-02-01T15:27:46;5.03;;;3.30;;
43552;SDS011;29153;42.696;23.218;2023-02-01T15:30:22;10.03;;;7.30;;
43552;SDS011;29153;42.696;23.218;2023-02-01T15:32:47;13.68;;;8.50;;
43552;SDS011;29153;42.696;23.218;2023-02-01T15:35:32;27.20;;;15.93;;
43552;SDS011;29153;42.696;23.218;2023-02-01T15:41:00;11.57;;;5.05;;
43552;SDS011;29153;42.696;23.218;2023-02-01T15:43:30;20.60;;;9.70;;
43552;SDS011;29153;42.696;23.218;2023-02-01T15:46:00;27.87;;;11.68;;
43552;SDS011;29153;42.696;23.218;2023-02-01T15:48:35;46.18;;;18.27;;
43552;SDS011;29153;42.696;23.218;2023-02-01T15:51:01;18.00;;;8.33;;
43552;SDS011;29153;42.696;23.218;2023-02-01T15:53:29;23.52;;;8.23;;
43552;SDS011;29153;42.696;23.218;2023-02-01T15:56:03;24.43;;;10.05;;
43552;SDS011;29153;42.696;23.218;2023-02-01T15:58:28;31.48;;;13.28;;
43552;SDS011;29153;42.696;23.218;2023-02-01T16:00:58;33.40;;;13.65;;
43552;SDS011;29153;42.696;23.218;2023-02-01T16:03:33;25.35;;;8.78;;
43552;SDS011;29153;42.696;23.218;2023-02-01T16:06:04;26.90;;;10.13;;
43552;SDS011;29153;42.696;23.218;2023-02-01T16:08:33;50.05;;;17.90;;
43552;SDS011;29153;42.696;23.218;2023-02-01T16:13:48;209.40;;;71.07;;
43552;SDS011;29153;42.696;23.218;2023-02-01T16:16:16;91.28;;;35.40;;
43552;SDS011;29153;42.696;23.218;2023-02-01T16:18:43;103.35;;;36.65;;
43552;SDS011;29153;42.696;23.218;2023-02-01T16:21:11;71.72;;;28.95;;
43552;SDS011;29153;42.696;23.218;2023-02-01T16:23:38;29.10;;;13.40;;
43552;SDS011;29153;42.696;23.218;2023-02-01T16:26:06;23.70;;;11.35;;
43552;SDS011;29153;42.696;23.218;2023-02-01T16:28:34;26.40;;;10.88;;
43552;SDS011;29153;42.696;23.218;2023-02-01T16:31:01;16.85;;;8.35;;
43552;SDS011;29153;42.696;23.218;2023-02-01T16:33:29;11.63;;;5.17;;
43552;SDS011;29153;42.696;23.218;2023-02-01T16:35:56;21.95;;;10.48;;
43552;SDS011;29153;42.696;23.218;2023-02-01T16:38:26;59.55;;;28.02;;
43552;SDS011;29153;42.696;23.218;2023-02-01T16:40:54;53.02;;;23.05;;
43552;SDS011;29153;42.696;23.218;2023-02-01T16:43:24;42.58;;;19.07;;
43552;SDS011;29153;42.696;23.218;2023-02-01T16:45:53;11.93;;;5.60;;
43552;SDS011;29153;42.696;23.218;2023-02-01T16:48:22;7.47;;;3.77;;
43552;SDS011;29153;42.696;23.218;2023-02-01T16:50:56;5.10;;;2.40;;
43552;SDS011;29153;42.696;23.218;2023-02-01T16:53:26;8.15;;;4.22;;
43552;SDS011;29153;42.696;23.218;2023-02-01T16:55:55;7.08;;;3.60;;
43552;SDS011;29153;42.696;23.218;2023-02-01T16:58:24;13.62;;;6.50;;
43552;SDS011;29153;42.696;23.218;2023-02-01T17:00:53;6.67;;;3.60;;
43552;SDS011;29153;42.696;23.218;2023-02-01T17:03:21;5.40;;;2.25;;
43552;SDS011;29153;42.696;23.218;2023-02-01T17:05:50;3.47;;;1.60;;
43552;SDS011;29153;42.696;23.218;2023-02-01T17:08:25;6.67;;;2.70;;